sensor_id;sensor_type;location;lat;lon;timestamp;P1;durP1;ratioP1;P2;durP2;ratioP2
23384;SDS011;11865;45.394;10.978;2024-01-25T00:02:01;104.35;;;50.70;;
23384;SDS011;11865;45.394;10.978;2024-01-25T00:04:30;103.95;;;48.58;;
23384;SDS011;11865;45.394;10.978;2024-01-25T00:06:58;84.68;;;43.00;;
23384;SDS011;11865;45.394;10.978;2024-01-25T00:09:26;84.97;;;43.88;;
23384;SDS011;11865;45.394;10.978;2024-01-25T00:11:54;87.97;;;43.80;;
23384;SDS011;11865;45.394;10.978;2024-01-25T00:14:21;85.15;;;44.35;;
23384;SDS011;11865;45.394;10.978;2024-01-25T00:16:49;92.18;;;45.15;;
23384;SDS011;11865;45.394;10.978;2024-01-25T00:19:16;95.20;;;44.83;;
23384;SDS011;11865;45.394;10.978;2024-01-25T00:21:44;87.78;;;43.10;;
23384;SDS011;11865;45.394;10.978;2024-01-25T00:24:12;86.65;;;42.78;;
23384;SDS011;11865;45.394;10.978;2024-01-25T00:26:40;100.30;;;48.78;;
23384;SDS011;11865;45.394;10.978;2024-01-25T00:29:07;102.43;;;49.67;;
23384;SDS011;11865;45.394;10.978;2024-01-25T00:31:35;86.03;;;45.63;;
23384;SDS011;11865;45.394;10.978;2024-01-25T00:34:02;102.32;;;46.08;;
23384;SDS011;11865;45.394;10.978;2024-01-25T00:36:30;100.47;;;48.40;;
23384;SDS011;11865;45.394;10.978;2024-01-25T00:38:58;103.05;;;48.17;;
23384;SDS011;11865;45.394;10.978;2024-01-25T00:41:26;94.65;;;44.90;;
23384;SDS011;11865;45.394;10.978;2024-01-25T00:43:56;99.43;;;48.03;;
23384;SDS011;11865;45.394;10.978;2024-01-25T00:46:24;109.13;;;49.95;;
23384;SDS011;11865;45.394;10.978;2024-01-25T00:48:52;94.03;;;48.40;;
23384;SDS011;11865;45.394;10.978;2024-01-25T00:51:21;83.03;;;45.58;;
23384;SDS011;11865;45.394;10.978;2024-01-25T00:53:52;88.38;;;45.95;;
23384;SDS011;11865;45.394;10.978;2024-01-25T00:56:19;99.43;;;49.47;;
23384;SDS011;11865;45.394;10.978;2024-01-25T00:58:47;94.70;;;49.22;;
23384;SDS011;11865;45.394;10.978;2024-01-25T01:01:15;99.18;;;48.00;;
23384;SDS011;11865;45.394;10.978;2024-01-25T01:03:43;93.00;;;47.92;;
23384;SDS011;11865;45.394;10.978;2024-01-25T01:06:11;110.47;;;53.72;;
23384;SDS011;11865;45.394;10.978;2024-01-25T01:08:39;110.93;;;55.40;;
23384;SDS011;11865;45.394;10.978;2024-01-25T01:11:06;113.22;;;56.78;;
23384;SDS011;11865;45.394;10.978;2024-01-25T01:13:34;111.88;;;55.83;;
23384;SDS011;11865;45.394;10.978;2024-01-25T01:16:02;102.93;;;51.60;;
23384;SDS011;11865;45.394;10.978;2024-01-25T01:18:29;90.50;;;49.25;;
23384;SDS011;11865;45.394;10.978;2024-01-25T01:20:57;92.93;;;47.22;;
23384;SDS011;11865;45.394;10.978;2024-01-25T01:23:24;89.40;;;46.63;;
23384;SDS011;11865;45.394;10.978;2024-01-25T01:25:52;93.70;;;47.40;;
23384;SDS011;11865;45.394;10.978;2024-01-25T01:28:19;94.38;;;47.88;;
23384;SDS011;11865;45.394;10.978;2024-01-25T01:30:47;100.15;;;48.53;;
23384;SDS011;11865;45.394;10.978;2024-01-25T01:33:15;104.30;;;52.33;;
23384;SDS011;11865;45.394;10.978;2024-01-25T01:35:42;102.93;;;53.65;;
23384;SDS011;11865;45.394;10.978;2024-01-25T01:38:10;102.38;;;54.63;;
23384;SDS011;11865;45.394;10.978;2024-01-25T01:40:38;107.13;;;51.92;;
23384;SDS011;11865;45.394;10.978;2024-01-25T01:43:05;91.75;;;46.13;;
23384;SDS011;11865;45.394;10.978;2024-01-25T01:45:33;91.82;;;47.63;;
23384;SDS011;11865;45.394;10.978;2024-01-25T01:48:01;100.90;;;49.80;;
23384;SDS011;11865;45.394;10.978;2024-01-25T01:50:28;105.70;;;51.75;;
23384;SDS011;11865;45.394;10.978;2024-01-25T01:52:56;103.60;;;49.10;;
23384;SDS011;11865;45.394;10.978;2024-01-25T01:55:24;87.55;;;46.58;;
23384;SDS011;11865;45.394;10.978;2024-01-25T01:57:51;82.13;;;44.03;;
23384;SDS011;11865;45.394;10.978;2024-01-25T02:00:19;86.28;;;43.70;;
23384;SDS011;11865;45.394;10.978;2024-01-25T02:02:47;99.22;;;47.65;;
23384;SDS011;11865;45.394;10.978;2024-01-25T02:05:15;91.93;;;45.97;;
23384;SDS011;11865;45.394;10.978;2024-01-25T02:07:43;95.95;;;46.72;;
23384;SDS011;11865;45.394;10.978;2024-01-25T02:10:11;86.35;;;44.95;;
23384;SDS011;11865;45.394;10.978;2024-01-25T02:12:39;98.72;;;45.50;;
23384;SDS011;11865;45.394;10.978;2024-01-25T02:15:06;92.35;;;47.38;;
23384;SDS011;11865;45.394;10.978;2024-01-25T02:17:34;93.35;;;46.90;;
23384;SDS011;11865;45.394;10.978;2024-01-25T02:20:03;95.70;;;48.05;;
23384;SDS011;11865;45.394;10.978;2024-01-25T02:22:32;85.65;;;44.88;;
23384;SDS011;11865;45.394;10.978;2024-01-25T02:24:59;93.75;;;46.72;;
23384;SDS011;11865;45.394;10.978;2024-01-25T02:27:27;102.50;;;47.53;;
23384;SDS011;11865;45.394;10.978;2024-01-25T02:29:55;91.70;;;46.75;;
23384;SDS011;11865;45.394;10.978;2024-01-25T02:32:22;91.28;;;47.30;;
23384;SDS011;11865;45.394;10.978;2024-01-25T02:34:50;94.82;;;48.60;;
23384;SDS011;11865;45.394;10.978;2024-01-25T02:37:17;93.07;;;48.80;;
23384;SDS011;11865;45.394;10.978;2024-01-25T02:39:45;97.20;;;48.75;;
23384;SDS011;11865;45.394;10.978;2024-01-25T02:42:13;92.80;;;46.50;;
23384;SDS011;11865;45.394;10.978;2024-01-25T02:44:43;85.85;;;45.30;;
23384;SDS011;11865;45.394;10.978;2024-01-25T02:47:11;99.88;;;50.00;;
23384;SDS011;11865;45.394;10.978;2024-01-25T02:49:39;106.22;;;51.20;;
23384;SDS011;11865;45.394;10.978;2024-01-25T02:52:06;105.78;;;52.30;;
23384;SDS011;11865;45.394;10.978;2024-01-25T02:54:34;101.72;;;52.45;;
23384;SDS011;11865;45.394;10.978;2024-01-25T02:57:04;102.03;;;50.95;;
23384;SDS011;11865;45.394;10.978;2024-01-25T02:59:31;102.78;;;51.47;;
23384;SDS011;11865;45.394;10.978;2024-01-25T03:01:59;101.57;;;52.60;;
23384;SDS011;11865;45.394;10.978;2024-01-25T03:04:27;97.93;;;50.35;;
23384;SDS011;11865;45.394;10.978;2024-01-25T03:06:54;106.70;;;51.10;;
23384;SDS011;11865;45.394;10.978;2024-01-25T03:09:23;98.13;;;50.33;;
23384;SDS011;11865;45.394;10.978;2024-01-25T03:11:50;91.30;;;47.50;;
23384;SDS011;11865;45.394;10.978;2024-01-25T03:14:18;99.43;;;50.42;;
23384;SDS011;11865;45.394;10.978;2024-01-25T03:16:45;90.35;;;47.13;;
23384;SDS011;11865;45.394;10.978;2024-01-25T03:19:13;88.47;;;46.58;;
23384;SDS011;11865;45.394;10.978;2024-01-25T03:21:41;94.85;;;47.00;;
23384;SDS011;11865;45.394;10.978;2024-01-25T03:24:08;94.60;;;46.72;;
23384;SDS011;11865;45.394;10.978;2024-01-25T03:26:36;93.97;;;46.40;;
23384;SDS011;11865;45.394;10.978;2024-01-25T03:29:03;97.55;;;49.85;;
23384;SDS011;11865;45.394;10.978;2024-01-25T03:31:31;96.88;;;50.17;;
23384;SDS011;11865;45.394;10.978;2024-01-25T03:33:58;96.45;;;48.88;;
23384;SDS011;11865;45.394;10.978;2024-01-25T03:36:26;86.20;;;44.45;;
23384;SDS011;11865;45.394;10.978;2024-01-25T03:38:54;86.93;;;47.28;;
23384;SDS011;11865;45.394;10.978;2024-01-25T03:41:21;93.15;;;46.25;;
23384;SDS011;11865;45.394;10.978;2024-01-25T03:43:50;84.75;;;43.17;;
23384;SDS011;11865;45.394;10.978;2024-01-25T03:46:18;83.90;;;43.10;;
23384;SDS011;11865;45.394;10.978;2024-01-25T03:48:46;93.80;;;45.35;;
23384;SDS011;11865;45.394;10.978;2024-01-25T03:51:13;84.90;;;43.00;;
23384;SDS011;11865;45.394;10.978;2024-01-25T03:53:41;84.47;;;43.15;;
23384;SDS011;11865;45.394;10.978;2024-01-25T03:56:12;94.07;;;46.28;;
23384;SDS011;11865;45.394;10.978;2024-01-25T03:58:40;85.47;;;45.90;;
23384;SDS011;11865;45.394;10.978;2024-01-25T04:01:08;94.30;;;48.83;;
23384;SDS011;11865;45.394;10.978;2024-01-25T04:03:36;84.40;;;43.80;;
23384;SDS011;11865;45.394;10.978;2024-01-25T04:06:04;83.38;;;43.92;;
23384;SDS011;11865;45.394;10.978;2024-01-25T04:08:32;89.20;;;44.50;;
23384;SDS011;11865;45.394;10.978;2024-01-25T04:10:59;91.47;;;46.35;;
23384;SDS011;11865;45.394;10.978;2024-01-25T04:13:26;85.80;;;43.65;;
23384;SDS011;11865;45.394;10.978;2024-01-25T04:15:54;92.75;;;44.53;;
23384;SDS011;11865;45.394;10.978;2024-01-25T04:18:22;82.68;;;43.92;;
23384;SDS011;11865;45.394;10.978;2024-01-25T04:20:49;82.13;;;42.13;;
23384;SDS011;11865;45.394;10.978;2024-01-25T04:23:18;90.15;;;44.70;;
23384;SDS011;11865;45.394;10.978;2024-01-25T04:25:45;85.45;;;44.50;;
23384;SDS011;11865;45.394;10.978;2024-01-25T04:28:13;91.40;;;45.42;;
23384;SDS011;11865;45.394;10.978;2024-01-25T04:30:41;94.28;;;46.47;;
23384;SDS011;11865;45.394;10.978;2024-01-25T04:33:09;85.47;;;41.85;;
23384;SDS011;11865;45.394;10.978;2024-01-25T04:35:37;86.45;;;45.67;;
23384;SDS011;11865;45.394;10.978;2024-01-25T04:38:05;96.00;;;48.67;;
23384;SDS011;11865;45.394;10.978;2024-01-25T04:40:32;94.82;;;48.08;;
23384;SDS011;11865;45.394;10.978;2024-01-25T04:43:00;98.68;;;50.35;;
23384;SDS011;11865;45.394;10.978;2024-01-25T04:45:27;96.65;;;46.72;;
23384;SDS011;11865;45.394;10.978;2024-01-25T04:47:55;87.68;;;44.78;;
23384;SDS011;11865;45.394;10.978;2024-01-25T04:50:23;97.45;;;46.63;;
23384;SDS011;11865;45.394;10.978;2024-01-25T04:52:50;94.20;;;46.63;;
23384;SDS011;11865;45.394;10.978;2024-01-25T04:55:18;101.13;;;46.60;;
23384;SDS011;11865;45.394;10.978;2024-01-25T04:57:47;95.40;;;45.50;;
23384;SDS011;11865;45.394;10.978;2024-01-25T05:00:17;95.72;;;47.13;;
23384;SDS011;11865;45.394;10.978;2024-01-25T05:02:44;87.20;;;45.28;;
23384;SDS011;11865;45.394;10.978;2024-01-25T05:05:12;92.55;;;45.13;;
23384;SDS011;11865;45.394;10.978;2024-01-25T05:07:40;94.65;;;45.92;;
23384;SDS011;11865;45.394;10.978;2024-01-25T05:10:08;90.38;;;44.03;;
23384;SDS011;11865;45.394;10.978;2024-01-25T05:12:35;85.22;;;44.67;;
23384;SDS011;11865;45.394;10.978;2024-01-25T05:15:03;82.93;;;43.67;;
23384;SDS011;11865;45.394;10.978;2024-01-25T05:17:31;89.50;;;44.47;;
23384;SDS011;11865;45.394;10.978;2024-01-25T05:19:59;90.03;;;43.53;;
23384;SDS011;11865;45.394;10.978;2024-01-25T05:22:26;87.25;;;42.65;;
23384;SDS011;11865;45.394;10.978;2024-01-25T05:24:54;88.53;;;43.90;;
23384;SDS011;11865;45.394;10.978;2024-01-25T05:27:22;86.50;;;42.53;;
23384;SDS011;11865;45.394;10.978;2024-01-25T05:29:50;86.68;;;42.60;;
23384;SDS011;11865;45.394;10.978;2024-01-25T05:32:17;90.97;;;43.15;;
23384;SDS011;11865;45.394;10.978;2024-01-25T05:34:45;79.57;;;40.75;;
23384;SDS011;11865;45.394;10.978;2024-01-25T05:37:12;78.97;;;39.83;;
23384;SDS011;11865;45.394;10.978;2024-01-25T05:39:40;84.78;;;41.35;;
23384;SDS011;11865;45.394;10.978;2024-01-25T05:42:07;86.15;;;42.75;;
23384;SDS011;11865;45.394;10.978;2024-01-25T05:44:35;84.63;;;42.33;;
23384;SDS011;11865;45.394;10.978;2024-01-25T05:47:03;81.18;;;40.33;;
23384;SDS011;11865;45.394;10.978;2024-01-25T05:49:30;86.25;;;42.13;;
23384;SDS011;11865;45.394;10.978;2024-01-25T05:51:58;85.80;;;42.17;;
23384;SDS011;11865;45.394;10.978;2024-01-25T05:54:26;77.90;;;40.22;;
23384;SDS011;11865;45.394;10.978;2024-01-25T05:56:53;80.78;;;41.45;;
23384;SDS011;11865;45.394;10.978;2024-01-25T05:59:21;82.82;;;40.92;;
23384;SDS011;11865;45.394;10.978;2024-01-25T06:01:48;73.97;;;38.53;;
23384;SDS011;11865;45.394;10.978;2024-01-25T06:04:16;75.05;;;39.92;;
23384;SDS011;11865;45.394;10.978;2024-01-25T06:06:44;80.97;;;40.55;;
23384;SDS011;11865;45.394;10.978;2024-01-25T06:09:11;78.03;;;38.17;;
23384;SDS011;11865;45.394;10.978;2024-01-25T06:11:40;70.25;;;36.90;;
23384;SDS011;11865;45.394;10.978;2024-01-25T06:14:09;73.20;;;38.97;;
23384;SDS011;11865;45.394;10.978;2024-01-25T06:16:36;75.20;;;39.92;;
23384;SDS011;11865;45.394;10.978;2024-01-25T06:19:04;73.80;;;37.90;;
23384;SDS011;11865;45.394;10.978;2024-01-25T06:21:31;71.88;;;36.03;;
23384;SDS011;11865;45.394;10.978;2024-01-25T06:24:02;76.10;;;36.53;;
23384;SDS011;11865;45.394;10.978;2024-01-25T06:26:30;77.28;;;35.95;;
23384;SDS011;11865;45.394;10.978;2024-01-25T06:28:58;70.15;;;33.97;;
23384;SDS011;11865;45.394;10.978;2024-01-25T06:31:26;67.95;;;35.78;;
23384;SDS011;11865;45.394;10.978;2024-01-25T06:33:54;73.10;;;36.83;;
23384;SDS011;11865;45.394;10.978;2024-01-25T06:36:22;85.78;;;42.13;;
23384;SDS011;11865;45.394;10.978;2024-01-25T06:38:49;81.22;;;44.50;;
23384;SDS011;11865;45.394;10.978;2024-01-25T06:41:17;112.88;;;48.75;;
23384;SDS011;11865;45.394;10.978;2024-01-25T06:43:44;79.35;;;39.95;;
23384;SDS011;11865;45.394;10.978;2024-01-25T06:46:12;72.20;;;36.45;;
23384;SDS011;11865;45.394;10.978;2024-01-25T06:48:40;67.68;;;36.20;;
23384;SDS011;11865;45.394;10.978;2024-01-25T06:51:08;70.80;;;35.78;;
23384;SDS011;11865;45.394;10.978;2024-01-25T06:53:35;83.45;;;39.85;;
23384;SDS011;11865;45.394;10.978;2024-01-25T06:56:03;81.85;;;42.35;;
23384;SDS011;11865;45.394;10.978;2024-01-25T06:58:31;76.57;;;41.50;;
23384;SDS011;11865;45.394;10.978;2024-01-25T07:00:59;84.82;;;43.50;;
23384;SDS011;11865;45.394;10.978;2024-01-25T07:03:27;90.25;;;46.42;;
23384;SDS011;11865;45.394;10.978;2024-01-25T07:05:55;87.10;;;44.67;;
23384;SDS011;11865;45.394;10.978;2024-01-25T07:08:23;82.95;;;41.83;;
23384;SDS011;11865;45.394;10.978;2024-01-25T07:10:51;87.32;;;43.97;;
23384;SDS011;11865;45.394;10.978;2024-01-25T07:13:19;92.00;;;47.40;;
23384;SDS011;11865;45.394;10.978;2024-01-25T07:15:48;90.00;;;46.53;;
23384;SDS011;11865;45.394;10.978;2024-01-25T07:18:15;88.97;;;47.05;;
23384;SDS011;11865;45.394;10.978;2024-01-25T07:20:43;100.45;;;45.38;;
23384;SDS011;11865;45.394;10.978;2024-01-25T07:23:11;88.88;;;43.65;;
23384;SDS011;11865;45.394;10.978;2024-01-25T07:25:39;96.13;;;48.00;;
23384;SDS011;11865;45.394;10.978;2024-01-25T07:28:06;89.30;;;45.55;;
23384;SDS011;11865;45.394;10.978;2024-01-25T07:30:34;98.35;;;45.63;;
23384;SDS011;11865;45.394;10.978;2024-01-25T07:33:02;85.05;;;44.40;;
23384;SDS011;11865;45.394;10.978;2024-01-25T07:35:29;87.75;;;43.80;;
23384;SDS011;11865;45.394;10.978;2024-01-25T07:37:57;89.70;;;44.28;;
23384;SDS011;11865;45.394;10.978;2024-01-25T07:40:25;98.00;;;49.58;;
23384;SDS011;11865;45.394;10.978;2024-01-25T07:42:53;92.93;;;49.10;;
23384;SDS011;11865;45.394;10.978;2024-01-25T07:45:20;92.45;;;46.75;;
23384;SDS011;11865;45.394;10.978;2024-01-25T07:47:48;93.32;;;46.38;;
23384;SDS011;11865;45.394;10.978;2024-01-25T07:50:21;90.57;;;45.75;;
23384;SDS011;11865;45.394;10.978;2024-01-25T07:52:49;85.40;;;44.55;;
23384;SDS011;11865;45.394;10.978;2024-01-25T07:55:17;92.75;;;46.30;;
23384;SDS011;11865;45.394;10.978;2024-01-25T07:57:44;85.15;;;45.25;;
23384;SDS011;11865;45.394;10.978;2024-01-25T08:00:12;89.57;;;44.85;;
23384;SDS011;11865;45.394;10.978;2024-01-25T08:02:40;90.25;;;46.85;;
23384;SDS011;11865;45.394;10.978;2024-01-25T08:05:08;87.03;;;45.85;;
23384;SDS011;11865;45.394;10.978;2024-01-25T08:07:36;82.35;;;44.08;;
23384;SDS011;11865;45.394;10.978;2024-01-25T08:10:04;86.05;;;44.20;;
23384;SDS011;11865;45.394;10.978;2024-01-25T08:12:32;78.00;;;42.78;;
23384;SDS011;11865;45.394;10.978;2024-01-25T08:15:00;86.07;;;44.88;;
23384;SDS011;11865;45.394;10.978;2024-01-25T08:17:28;87.57;;;45.53;;
23384;SDS011;11865;45.394;10.978;2024-01-25T08:19:55;95.10;;;49.35;;
23384;SDS011;11865;45.394;10.978;2024-01-25T08:22:23;97.47;;;50.33;;
23384;SDS011;11865;45.394;10.978;2024-01-25T08:24:51;91.30;;;46.83;;
23384;SDS011;11865;45.394;10.978;2024-01-25T08:27:19;89.65;;;46.15;;
23384;SDS011;11865;45.394;10.978;2024-01-25T08:29:46;88.32;;;45.90;;
23384;SDS011;11865;45.394;10.978;2024-01-25T08:32:14;82.55;;;44.72;;
23384;SDS011;11865;45.394;10.978;2024-01-25T08:34:41;89.63;;;44.90;;
23384;SDS011;11865;45.394;10.978;2024-01-25T08:37:09;78.68;;;43.25;;
23384;SDS011;11865;45.394;10.978;2024-01-25T08:39:37;77.93;;;42.33;;
23384;SDS011;11865;45.394;10.978;2024-01-25T08:42:04;79.85;;;42.83;;
23384;SDS011;11865;45.394;10.978;2024-01-25T08:44:33;79.53;;;44.67;;
23384;SDS011;11865;45.394;10.978;2024-01-25T08:47:00;81.80;;;43.08;;
23384;SDS011;11865;45.394;10.978;2024-01-25T08:49:28;80.70;;;43.72;;
23384;SDS011;11865;45.394;10.978;2024-01-25T08:51:55;78.13;;;43.20;;
23384;SDS011;11865;45.394;10.978;2024-01-25T08:54:23;85.45;;;44.08;;
23384;SDS011;11865;45.394;10.978;2024-01-25T08:56:50;84.22;;;44.47;;
23384;SDS011;11865;45.394;10.978;2024-01-25T08:59:18;82.00;;;44.28;;
23384;SDS011;11865;45.394;10.978;2024-01-25T09:01:45;78.38;;;43.95;;
23384;SDS011;11865;45.394;10.978;2024-01-25T09:04:13;87.30;;;45.33;;
23384;SDS011;11865;45.394;10.978;2024-01-25T09:06:41;92.95;;;47.40;;
23384;SDS011;11865;45.394;10.978;2024-01-25T09:09:10;78.68;;;45.58;;
23384;SDS011;11865;45.394;10.978;2024-01-25T09:11:39;84.72;;;47.35;;
23384;SDS011;11865;45.394;10.978;2024-01-25T09:14:06;84.55;;;45.58;;
23384;SDS011;11865;45.394;10.978;2024-01-25T09:16:34;85.28;;;44.83;;
23384;SDS011;11865;45.394;10.978;2024-01-25T09:19:04;84.63;;;44.95;;
23384;SDS011;11865;45.394;10.978;2024-01-25T09:21:32;81.18;;;45.40;;
23384;SDS011;11865;45.394;10.978;2024-01-25T09:24:00;81.53;;;44.33;;
23384;SDS011;11865;45.394;10.978;2024-01-25T09:26:27;79.70;;;43.25;;
23384;SDS011;11865;45.394;10.978;2024-01-25T09:28:55;78.25;;;42.50;;
23384;SDS011;11865;45.394;10.978;2024-01-25T09:31:22;80.53;;;42.17;;
23384;SDS011;11865;45.394;10.978;2024-01-25T09:33:50;75.07;;;41.75;;
23384;SDS011;11865;45.394;10.978;2024-01-25T09:36:18;83.85;;;41.85;;
23384;SDS011;11865;45.394;10.978;2024-01-25T09:38:46;77.20;;;42.60;;
23384;SDS011;11865;45.394;10.978;2024-01-25T09:41:14;75.50;;;42.38;;
23384;SDS011;11865;45.394;10.978;2024-01-25T09:43:41;75.13;;;40.70;;
23384;SDS011;11865;45.394;10.978;2024-01-25T09:46:11;75.03;;;41.92;;
23384;SDS011;11865;45.394;10.978;2024-01-25T09:48:44;76.97;;;40.80;;
23384;SDS011;11865;45.394;10.978;2024-01-25T09:51:14;75.13;;;39.53;;
23384;SDS011;11865;45.394;10.978;2024-01-25T09:53:41;68.55;;;37.90;;
23384;SDS011;11865;45.394;10.978;2024-01-25T09:56:10;72.35;;;38.75;;
23384;SDS011;11865;45.394;10.978;2024-01-25T09:58:43;74.05;;;38.45;;
23384;SDS011;11865;45.394;10.978;2024-01-25T10:01:15;72.00;;;37.38;;
23384;SDS011;11865;45.394;10.978;2024-01-25T10:03:43;77.63;;;38.40;;
23384;SDS011;11865;45.394;10.978;2024-01-25T10:06:14;81.72;;;41.58;;
23384;SDS011;11865;45.394;10.978;2024-01-25T10:08:44;64.90;;;35.90;;
23384;SDS011;11865;45.394;10.978;2024-01-25T10:11:11;70.30;;;38.55;;
23384;SDS011;11865;45.394;10.978;2024-01-25T10:13:46;70.28;;;38.83;;
23384;SDS011;11865;45.394;10.978;2024-01-25T10:16:15;73.18;;;38.38;;
23384;SDS011;11865;45.394;10.978;2024-01-25T10:18:45;67.10;;;37.40;;
23384;SDS011;11865;45.394;10.978;2024-01-25T10:21:15;60.88;;;36.60;;
23384;SDS011;11865;45.394;10.978;2024-01-25T10:23:46;68.00;;;36.15;;
23384;SDS011;11865;45.394;10.978;2024-01-25T10:26:15;65.20;;;35.47;;
23384;SDS011;11865;45.394;10.978;2024-01-25T10:28:50;66.30;;;34.85;;
23384;SDS011;11865;45.394;10.978;2024-01-25T10:31:28;61.50;;;35.55;;
23384;SDS011;11865;45.394;10.978;2024-01-25T10:33:56;63.03;;;35.03;;
23384;SDS011;11865;45.394;10.978;2024-01-25T10:36:25;63.20;;;35.20;;
23384;SDS011;11865;45.394;10.978;2024-01-25T10:38:54;66.63;;;35.45;;
23384;SDS011;11865;45.394;10.978;2024-01-25T10:41:23;68.10;;;35.17;;
23384;SDS011;11865;45.394;10.978;2024-01-25T10:43:55;63.63;;;35.25;;
23384;SDS011;11865;45.394;10.978;2024-01-25T10:46:23;66.53;;;34.33;;
23384;SDS011;11865;45.394;10.978;2024-01-25T10:48:51;60.50;;;34.90;;
23384;SDS011;11865;45.394;10.978;2024-01-25T10:51:19;61.22;;;35.47;;
23384;SDS011;11865;45.394;10.978;2024-01-25T10:53:47;66.28;;;35.65;;
23384;SDS011;11865;45.394;10.978;2024-01-25T10:56:15;65.93;;;37.38;;
23384;SDS011;11865;45.394;10.978;2024-01-25T10:58:42;62.03;;;34.80;;
23384;SDS011;11865;45.394;10.978;2024-01-25T11:01:10;65.47;;;36.80;;
23384;SDS011;11865;45.394;10.978;2024-01-25T11:03:42;46.65;;;26.65;;
23384;SDS011;11865;45.394;10.978;2024-01-25T11:06:14;62.35;;;36.08;;
23384;SDS011;11865;45.394;10.978;2024-01-25T11:08:42;72.00;;;37.10;;
23384;SDS011;11865;45.394;10.978;2024-01-25T11:11:11;65.05;;;37.10;;
23384;SDS011;11865;45.394;10.978;2024-01-25T11:13:41;62.60;;;36.58;;
23384;SDS011;11865;45.394;10.978;2024-01-25T11:18:47;67.28;;;39.05;;
23384;SDS011;11865;45.394;10.978;2024-01-25T11:21:25;64.55;;;38.85;;
23384;SDS011;11865;45.394;10.978;2024-01-25T11:24:02;65.53;;;38.78;;
23384;SDS011;11865;45.394;10.978;2024-01-25T11:26:33;69.25;;;38.28;;
23384;SDS011;11865;45.394;10.978;2024-01-25T11:29:01;69.73;;;38.20;;
23384;SDS011;11865;45.394;10.978;2024-01-25T11:31:29;72.07;;;38.88;;
23384;SDS011;11865;45.394;10.978;2024-01-25T11:33:57;63.08;;;38.40;;
23384;SDS011;11865;45.394;10.978;2024-01-25T11:36:27;64.57;;;37.80;;
23384;SDS011;11865;45.394;10.978;2024-01-25T11:38:55;67.68;;;38.40;;
23384;SDS011;11865;45.394;10.978;2024-01-25T11:41:24;70.00;;;39.95;;
23384;SDS011;11865;45.394;10.978;2024-01-25T11:43:52;64.22;;;37.80;;
23384;SDS011;11865;45.394;10.978;2024-01-25T11:46:21;68.40;;;37.30;;
23384;SDS011;11865;45.394;10.978;2024-01-25T11:48:49;65.32;;;38.65;;
23384;SDS011;11865;45.394;10.978;2024-01-25T11:51:17;70.68;;;37.95;;
23384;SDS011;11865;45.394;10.978;2024-01-25T11:53:45;65.75;;;38.70;;
23384;SDS011;11865;45.394;10.978;2024-01-25T11:56:13;67.43;;;38.85;;
23384;SDS011;11865;45.394;10.978;2024-01-25T11:58:44;67.97;;;39.38;;
23384;SDS011;11865;45.394;10.978;2024-01-25T12:01:13;71.00;;;38.30;;
23384;SDS011;11865;45.394;10.978;2024-01-25T12:03:41;68.30;;;38.67;;
23384;SDS011;11865;45.394;10.978;2024-01-25T12:06:09;66.65;;;37.25;;
23384;SDS011;11865;45.394;10.978;2024-01-25T12:08:37;69.43;;;40.50;;
23384;SDS011;11865;45.394;10.978;2024-01-25T12:11:05;77.05;;;41.03;;
23384;SDS011;11865;45.394;10.978;2024-01-25T12:13:40;78.57;;;41.00;;
23384;SDS011;11865;45.394;10.978;2024-01-25T12:16:10;75.72;;;41.58;;
23384;SDS011;11865;45.394;10.978;2024-01-25T12:18:40;68.50;;;39.70;;
23384;SDS011;11865;45.394;10.978;2024-01-25T12:21:10;64.85;;;38.97;;
23384;SDS011;11865;45.394;10.978;2024-01-25T12:23:40;74.78;;;39.53;;
23384;SDS011;11865;45.394;10.978;2024-01-25T12:26:10;70.05;;;39.70;;
23384;SDS011;11865;45.394;10.978;2024-01-25T12:28:41;67.20;;;39.60;;
23384;SDS011;11865;45.394;10.978;2024-01-25T12:31:09;64.95;;;39.20;;
23384;SDS011;11865;45.394;10.978;2024-01-25T12:33:37;70.40;;;39.47;;
23384;SDS011;11865;45.394;10.978;2024-01-25T12:36:05;68.80;;;41.53;;
23384;SDS011;11865;45.394;10.978;2024-01-25T12:38:33;70.57;;;40.30;;
23384;SDS011;11865;45.394;10.978;2024-01-25T12:41:02;71.65;;;40.08;;
23384;SDS011;11865;45.394;10.978;2024-01-25T12:43:31;69.32;;;39.58;;
23384;SDS011;11865;45.394;10.978;2024-01-25T12:45:59;68.03;;;39.95;;
23384;SDS011;11865;45.394;10.978;2024-01-25T12:48:44;69.28;;;39.50;;
23384;SDS011;11865;45.394;10.978;2024-01-25T12:51:14;70.85;;;39.42;;
23384;SDS011;11865;45.394;10.978;2024-01-25T12:53:42;70.28;;;40.03;;
23384;SDS011;11865;45.394;10.978;2024-01-25T12:56:10;75.40;;;40.85;;
23384;SDS011;11865;45.394;10.978;2024-01-25T12:58:37;67.07;;;38.53;;
23384;SDS011;11865;45.394;10.978;2024-01-25T13:01:06;65.30;;;39.50;;
23384;SDS011;11865;45.394;10.978;2024-01-25T13:03:34;73.03;;;41.40;;
23384;SDS011;11865;45.394;10.978;2024-01-25T13:06:04;76.03;;;40.95;;
23384;SDS011;11865;45.394;10.978;2024-01-25T13:08:32;75.85;;;39.83;;
23384;SDS011;11865;45.394;10.978;2024-01-25T13:11:00;73.78;;;41.35;;
23384;SDS011;11865;45.394;10.978;2024-01-25T13:13:27;68.35;;;38.92;;
23384;SDS011;11865;45.394;10.978;2024-01-25T13:15:55;67.07;;;38.85;;
23384;SDS011;11865;45.394;10.978;2024-01-25T13:18:24;68.15;;;39.25;;
23384;SDS011;11865;45.394;10.978;2024-01-25T13:20:52;84.57;;;41.20;;
23384;SDS011;11865;45.394;10.978;2024-01-25T13:23:19;74.13;;;39.47;;
23384;SDS011;11865;45.394;10.978;2024-01-25T13:25:47;70.82;;;40.17;;
23384;SDS011;11865;45.394;10.978;2024-01-25T13:28:14;78.03;;;41.22;;
23384;SDS011;11865;45.394;10.978;2024-01-25T13:30:45;68.85;;;40.17;;
23384;SDS011;11865;45.394;10.978;2024-01-25T13:33:12;65.10;;;38.97;;
23384;SDS011;11865;45.394;10.978;2024-01-25T13:35:40;68.50;;;38.65;;
23384;SDS011;11865;45.394;10.978;2024-01-25T13:38:08;71.07;;;39.65;;
23384;SDS011;11865;45.394;10.978;2024-01-25T13:40:37;67.88;;;39.50;;
23384;SDS011;11865;45.394;10.978;2024-01-25T13:43:05;64.97;;;38.70;;
23384;SDS011;11865;45.394;10.978;2024-01-25T13:45:32;69.35;;;40.25;;
23384;SDS011;11865;45.394;10.978;2024-01-25T13:48:00;61.78;;;38.08;;
23384;SDS011;11865;45.394;10.978;2024-01-25T13:50:27;66.20;;;39.63;;
23384;SDS011;11865;45.394;10.978;2024-01-25T13:52:55;71.22;;;40.88;;
23384;SDS011;11865;45.394;10.978;2024-01-25T13:55:22;66.47;;;39.13;;
23384;SDS011;11865;45.394;10.978;2024-01-25T13:57:50;67.05;;;38.35;;
23384;SDS011;11865;45.394;10.978;2024-01-25T14:00:18;74.15;;;40.60;;
23384;SDS011;11865;45.394;10.978;2024-01-25T14:02:45;69.68;;;40.72;;
23384;SDS011;11865;45.394;10.978;2024-01-25T14:05:14;85.30;;;43.03;;
23384;SDS011;11865;45.394;10.978;2024-01-25T14:07:41;73.10;;;41.97;;
23384;SDS011;11865;45.394;10.978;2024-01-25T14:10:09;69.20;;;41.60;;
23384;SDS011;11865;45.394;10.978;2024-01-25T14:12:37;72.97;;;41.78;;
23384;SDS011;11865;45.394;10.978;2024-01-25T14:15:05;69.63;;;42.58;;
23384;SDS011;11865;45.394;10.978;2024-01-25T14:17:32;68.20;;;41.80;;